Valparaiso, FL (32580)

10:46 AM CDT on August 28, 2015 (GMT -0500)
Pear Tree Observatory | | Change Station
CLOSE
Current Station
Personal Weather Station
Location: Valparaiso, FL
Elevation: 80 ft
Nearby Weather Stations

Elev 80 ft 30.51 °N, 86.50 °W | Updated 1 second ago

Scattered Clouds
Scattered Clouds
88.4 °F
Feels Like 95 °F
N
0.0
Wind Variable Wind from SE
Gusts 2.0 mph

Today
High -- | Low -- °F
--% Chance of Precip.
Yesterday
High -- | Low -- °F
Precip. -- in
6:20 AM 7:13 PM
Waxing Gibbous, 98% visible
Pressure 30.05 in
Visibility 10.0 miles
Clouds Scattered Clouds 5500 ft
Scattered Clouds 25000 ft
Heat Index 95 °F
Dew Point 71 °F
Humidity 57%
Rainfall 0.00 in
Snow Depth Not available.
UV 5 out of 12
Pollen 7.30 out of 12
Air Quality Not available.
Flu Activity Not available.
METAR KVPS 281455Z 06004KT 10SM SCT055 SCT250 28/19 A3003 RMK AO2A SLP175 T02830192 52015 $
Pressure 30.05 in
Visibility 10.0 miles
Clouds Scattered Clouds 5500 ft
Scattered Clouds 25000 ft
Heat Index 95 °F
Dew Point 71 °F
Humidity 57%
Rainfall 0.00 in
Snow Depth Not available.
UV 5 out of 12
Pollen 7.30 out of 12
Air Quality Not available.
Flu Activity Not available.
METAR KVPS 281455Z 06004KT 10SM SCT055 SCT250 28/19 A3003 RMK AO2A SLP175 T02830192 52015 $

10-Day Weather Forecast

×

Almanac

Astronomy

Aug. 28, 2015 Rise Set
Actual Time
Civil Twilight
Nautical Twilight
Astronomical Twilight
Moon
Length of Visible Light
Length of Day
Tomorrow will be .
, % of the Moon is Illuminated

Today's Extremes

State Highs State Lows

Community

WunderPhotos

Upload Photos

1,850,402 photos uploaded!

WunderBlogs® & News

Nearby

Air Quality

  Air Quality AQ Index Pollutant
Not available.

Snow Depth

Station Depth Elevation

Earthquake Activity

City Distance Mag. Time & Date
Minimum magnitude displayed is 2.5.

Coastal Water Temperatures

Place Temperature

Stations

Nearby Weather Stations

Station Location Temp. Windchill Dew Point Humidity Wind Precip. Elev Updated Type